Time;durP1;ratioP1;P1;durP2;ratioP2;P2;SDS_P1;SDS_P2;PMS_P1;PMS_P2;Temp;Humidity;BMP_temperature;BMP_pressure;BME280_temperature;BME280_humidity;BME280_pressure;Samples;Min_cycle;Max_cycle;Signal;HPM_P1;HPM_P2
2021/09/01 00:01:07;;;;;;;8.50;2.15;;;16.90;99.90;;;;;;4735133;29;20139;-83
2021/09/01 00:03:34;;;;;;;14.07;2.47;;;16.90;99.90;;;;;;4782736;29;20042;-84
2021/09/01 00:06:05;;;;;;;10.43;1.75;;;16.90;99.90;;;;;;4737323;29;20059;-85
2021/09/01 00:08:35;;;;;;;8.77;2.20;;;16.90;99.90;;;;;;4750357;29;20787;-84
2021/09/01 00:11:02;;;;;;;9.65;1.80;;;16.80;99.90;;;;;;4769799;29;20054;-84
2021/09/01 00:13:28;;;;;;;10.40;2.13;;;16.80;99.90;;;;;;4762866;29;20055;-83
2021/09/01 00:15:55;;;;;;;10.02;1.98;;;16.80;99.90;;;;;;4746001;29;20059;-83
2021/09/01 00:18:31;;;;;;;7.57;1.80;;;16.80;99.90;;;;;;4778833;29;20049;-91
2021/09/01 00:20:57;;;;;;;11.10;2.05;;;16.80;99.90;;;;;;4759934;29;20047;-85
2021/09/01 00:23:24;;;;;;;10.23;2.13;;;16.90;99.90;;;;;;4792274;29;20031;-82
2021/09/01 00:25:50;;;;;;;9.57;2.88;;;16.80;99.90;;;;;;4777869;29;20046;-81
2021/09/01 00:28:17;;;;;;;9.65;2.15;;;16.80;99.90;;;;;;4770823;29;20055;-82
2021/09/01 00:30:43;;;;;;;12.75;2.53;;;16.80;99.80;;;;;;4743084;29;20058;-82
2021/09/01 00:33:10;;;;;;;8.00;1.85;;;16.80;99.80;;;;;;4754198;29;20047;-86
2021/09/01 00:35:41;;;;;;;9.93;1.98;;;16.70;99.80;;;;;;4745539;29;20543;-85
2021/09/01 00:38:07;;;;;;;11.70;1.90;;;16.70;99.80;;;;;;4723178;29;20051;-88
2021/09/01 00:40:34;;;;;;;6.95;1.80;;;16.70;99.80;;;;;;4734785;29;20639;-85
2021/09/01 00:43:01;;;;;;;10.55;1.73;;;16.70;99.70;;;;;;4777852;30;20592;-85
2021/09/01 00:45:28;;;;;;;8.07;1.95;;;16.70;99.70;;;;;;4765427;29;20130;-85
2021/09/01 00:47:55;;;;;;;7.80;1.80;;;16.80;99.80;;;;;;4764744;29;20051;-85
2021/09/01 00:50:22;;;;;;;8.00;1.88;;;16.70;99.80;;;;;;4780046;30;20035;-86
2021/09/01 00:52:48;;;;;;;10.70;1.80;;;16.80;99.80;;;;;;4763581;29;20058;-85
2021/09/01 00:55:22;;;;;;;6.47;1.60;;;16.70;99.70;;;;;;4738146;29;20639;-86
2021/09/01 00:57:53;;;;;;;8.07;1.90;;;16.70;99.70;;;;;;4765199;29;20054;-86
2021/09/01 01:00:38;;;;;;;9.27;2.40;;;16.80;99.80;;;;;;4752738;29;20518;-85
2021/09/01 01:03:10;;;;;;;8.02;1.52;;;16.80;99.70;;;;;;4751923;29;20054;-85
2021/09/01 01:05:36;;;;;;;10.10;2.45;;;16.80;99.70;;;;;;4750668;30;20047;-85
2021/09/01 01:08:04;;;;;;;7.20;1.30;;;16.80;99.70;;;;;;4764950;29;20047;-85
2021/09/01 01:10:32;;;;;;;8.18;2.00;;;16.80;99.70;;;;;;4765542;29;20043;-85
2021/09/01 01:12:59;;;;;;;8.70;1.70;;;16.70;99.70;;;;;;4735743;29;20047;-84
2021/09/01 01:15:25;;;;;;;8.57;1.33;;;16.80;99.80;;;;;;4735774;29;20416;-85
2021/09/01 01:17:52;;;;;;;7.32;1.55;;;16.80;99.80;;;;;;4747887;29;20472;-85
2021/09/01 01:20:19;;;;;;;7.10;1.52;;;16.80;99.90;;;;;;4750697;29;20055;-85
2021/09/01 01:22:45;;;;;;;8.60;1.80;;;16.80;99.90;;;;;;4747439;29;20043;-84
2021/09/01 01:25:32;;;;;;;12.43;2.05;;;16.80;99.80;;;;;;4764693;29;20044;-85
2021/09/01 01:27:58;;;;;;;9.50;1.55;;;16.80;99.80;;;;;;4763110;29;20412;-84
2021/09/01 01:30:25;;;;;;;17.80;1.95;;;16.80;99.80;;;;;;4749605;30;20222;-84
2021/09/01 01:32:53;;;;;;;12.18;1.98;;;16.80;99.80;;;;;;4751450;30;20063;-85
2021/09/01 01:35:31;;;;;;;11.85;2.05;;;16.80;99.80;;;;;;4765378;30;20047;-85
2021/09/01 01:38:00;;;;;;;9.23;1.98;;;16.80;99.80;;;;;;4750715;29;20048;-85
2021/09/01 01:40:27;;;;;;;7.70;1.50;;;16.80;99.80;;;;;;4763963;29;20055;-85
2021/09/01 01:42:55;;;;;;;10.02;1.80;;;16.80;99.90;;;;;;4780751;29;20511;-85
2021/09/01 01:45:24;;;;;;;8.13;1.85;;;16.80;99.90;;;;;;4750659;29;20055;-86
2021/09/01 01:47:51;;;;;;;9.15;1.70;;;16.80;99.90;;;;;;4755574;29;20050;-84
2021/09/01 01:50:18;;;;;;;6.15;1.63;;;16.80;99.90;;;;;;4752030;29;20471;-84
2021/09/01 01:52:44;;;;;;;7.68;1.60;;;16.80;99.90;;;;;;4765625;29;20058;-84
2021/09/01 01:55:12;;;;;;;12.23;2.70;;;16.80;99.90;;;;;;4735492;29;20044;-84
2021/09/01 01:57:39;;;;;;;10.07;1.75;;;16.70;99.90;;;;;;4748482;29;20042;-84
2021/09/01 02:00:10;;;;;;;8.68;1.83;;;16.70;99.90;;;;;;4734232;29;20058;-84
2021/09/01 02:02:41;;;;;;;6.50;2.10;;;16.70;99.90;;;;;;4750593;29;20047;-84
2021/09/01 02:05:08;;;;;;;6.63;1.50;;;16.70;99.90;;;;;;4765370;29;20035;-84
2021/09/01 02:07:35;;;;;;;4.80;1.30;;;16.70;99.90;;;;;;4738767;29;20057;-83
2021/09/01 02:10:02;;;;;;;9.02;1.65;;;16.70;99.90;;;;;;4780338;29;20035;-84
2021/09/01 02:12:32;;;;;;;8.27;2.63;;;16.70;99.90;;;;;;4782495;29;20040;-84
2021/09/01 02:15:00;;;;;;;7.35;1.70;;;16.70;99.90;;;;;;4760142;30;20055;-84
2021/09/01 02:17:28;;;;;;;8.02;1.65;;;16.70;99.90;;;;;;4746358;29;20052;-85
2021/09/01 02:19:55;;;;;;;5.47;1.52;;;16.60;99.90;;;;;;4747299;29;20371;-84
2021/09/01 02:22:22;;;;;;;5.20;1.40;;;16.70;99.90;;;;;;4749567;30;20051;-84
2021/09/01 02:24:49;;;;;;;10.65;1.83;;;16.70;99.90;;;;;;4765480;30;20031;-84
2021/09/01 02:27:16;;;;;;;9.07;1.88;;;16.70;99.90;;;;;;4736646;29;20055;-84
2021/09/01 02:29:42;;;;;;;6.35;1.70;;;16.70;99.90;;;;;;4764827;30;20059;-84
2021/09/01 02:32:09;;;;;;;8.07;1.92;;;16.70;99.90;;;;;;4748104;29;20519;-84
2021/09/01 02:34:36;;;;;;;5.25;1.38;;;16.70;99.90;;;;;;4737156;30;20058;-84
2021/09/01 02:37:03;;;;;;;8.57;2.20;;;16.70;99.90;;;;;;4763240;29;20450;-85
2021/09/01 02:39:29;;;;;;;9.63;1.85;;;16.70;99.90;;;;;;4741836;29;20051;-84
2021/09/01 02:41:56;;;;;;;8.85;1.90;;;16.70;99.90;;;;;;4751289;30;20054;-84
2021/09/01 02:44:22;;;;;;;8.75;1.80;;;16.70;99.90;;;;;;4750650;29;20508;-84
2021/09/01 02:46:49;;;;;;;8.07;2.00;;;16.70;99.90;;;;;;4740268;29;20050;-84
2021/09/01 02:49:15;;;;;;;8.35;1.77;;;16.60;99.90;;;;;;4754250;29;20047;-85
2021/09/01 02:51:42;;;;;;;8.90;2.00;;;16.60;99.90;;;;;;4754418;30;20487;-84
2021/09/01 02:54:08;;;;;;;7.53;1.63;;;16.60;99.90;;;;;;4751931;29;20115;-85
2021/09/01 02:56:38;;;;;;;6.28;1.52;;;16.60;99.90;;;;;;4750955;29;20399;-85
2021/09/01 02:59:05;;;;;;;9.38;2.40;;;16.60;99.90;;;;;;4750284;29;20055;-85
2021/09/01 03:01:31;;;;;;;7.15;2.03;;;16.60;99.90;;;;;;4751521;29;20058;-84
2021/09/01 03:03:58;;;;;;;6.95;1.60;;;16.60;99.90;;;;;;4766219;30;20027;-85
2021/09/01 03:06:25;;;;;;;6.85;1.55;;;16.60;99.90;;;;;;4750957;29;20047;-85
2021/09/01 03:08:51;;;;;;;5.97;1.92;;;16.60;99.90;;;;;;4750522;29;20485;-85
2021/09/01 03:11:18;;;;;;;9.32;1.90;;;16.60;99.90;;;;;;4754704;29;20518;-85
2021/09/01 03:13:47;;;;;;;8.48;2.03;;;16.60;99.90;;;;;;4766587;29;20420;-85
2021/09/01 03:16:14;;;;;;;10.15;1.80;;;16.60;99.90;;;;;;4753093;29;20523;-85
2021/09/01 03:18:40;;;;;;;7.43;2.15;;;16.60;99.90;;;;;;4750682;30;20050;-85
2021/09/01 03:21:09;;;;;;;9.07;2.15;;;16.60;99.90;;;;;;4736262;29;20145;-85
2021/09/01 03:23:36;;;;;;;10.35;1.70;;;16.60;99.90;;;;;;4764754;29;20050;-84
2021/09/01 03:26:04;;;;;;;13.57;2.30;;;16.60;99.90;;;;;;4739005;29;20516;-85
2021/09/01 03:28:30;;;;;;;8.38;1.92;;;16.60;99.90;;;;;;4750636;29;20047;-85
2021/09/01 03:30:57;;;;;;;16.05;2.63;;;16.60;99.90;;;;;;4758830;29;20437;-85
2021/09/01 03:33:24;;;;;;;12.02;2.10;;;16.60;99.90;;;;;;4753257;29;20047;-85
2021/09/01 03:35:50;;;;;;;6.78;1.60;;;16.60;99.90;;;;;;4750221;29;20063;-86
2021/09/01 03:38:17;;;;;;;7.97;2.33;;;16.50;99.90;;;;;;4751290;30;20440;-85
2021/09/01 03:40:43;;;;;;;10.52;2.33;;;16.50;99.90;;;;;;4750299;29;20062;-85
2021/09/01 03:43:10;;;;;;;6.22;1.77;;;16.50;99.90;;;;;;4767391;30;20377;-85
2021/09/01 03:45:37;;;;;;;7.88;1.77;;;16.50;99.90;;;;;;4736211;30;20131;-85
2021/09/01 03:48:04;;;;;;;9.85;2.13;;;16.50;99.90;;;;;;4736916;29;20058;-84
2021/09/01 03:50:31;;;;;;;6.97;2.13;;;16.50;99.90;;;;;;4756495;29;20379;-84
2021/09/01 03:53:00;;;;;;;8.10;2.28;;;16.50;99.90;;;;;;4738783;29;20063;-85
2021/09/01 03:55:29;;;;;;;10.68;2.58;;;16.50;99.90;;;;;;4750592;29;20062;-84
2021/09/01 03:57:56;;;;;;;11.80;2.55;;;16.50;99.90;;;;;;4750998;29;20051;-84
2021/09/01 04:00:22;;;;;;;8.98;2.45;;;16.50;99.90;;;;;;4765471;29;20489;-85
2021/09/01 04:02:49;;;;;;;5.88;2.15;;;16.50;99.90;;;;;;4752745;29;20054;-85
2021/09/01 04:05:16;;;;;;;10.00;2.13;;;16.50;99.90;;;;;;4753254;29;20484;-84
2021/09/01 04:07:43;;;;;;;8.30;2.00;;;16.50;99.90;;;;;;4750177;29;20043;-85
2021/09/01 04:10:10;;;;;;;12.00;2.20;;;16.50;99.90;;;;;;4767425;29;20415;-85
2021/09/01 04:12:36;;;;;;;6.13;1.85;;;16.50;99.90;;;;;;4753140;30;20047;-85
2021/09/01 04:15:04;;;;;;;6.85;1.98;;;16.50;99.90;;;;;;4756800;30;20054;-84
2021/09/01 04:17:31;;;;;;;8.95;1.88;;;16.50;99.90;;;;;;4755865;29;20042;-84
2021/09/01 04:19:58;;;;;;;4.78;1.52;;;16.50;99.90;;;;;;4763841;30;20057;-84
2021/09/01 04:22:24;;;;;;;9.77;2.22;;;16.50;99.90;;;;;;4751536;30;20496;-85
2021/09/01 04:24:51;;;;;;;8.88;2.22;;;16.50;99.90;;;;;;4737200;29;20489;-85
2021/09/01 04:27:18;;;;;;;6.68;2.28;;;16.40;99.90;;;;;;4767075;29;20516;-85
2021/09/01 04:29:44;;;;;;;9.10;2.05;;;16.40;99.90;;;;;;4738407;29;20051;-83
2021/09/01 04:32:11;;;;;;;8.05;2.30;;;16.40;99.90;;;;;;4726254;29;20062;-84
2021/09/01 04:34:37;;;;;;;10.75;2.22;;;16.40;99.90;;;;;;4749756;30;20047;-84
2021/09/01 04:37:04;;;;;;;11.63;1.98;;;16.40;99.90;;;;;;4748625;30;20066;-85
2021/09/01 04:39:30;;;;;;;10.43;1.75;;;16.40;99.90;;;;;;4748912;29;20051;-85
2021/09/01 04:41:57;;;;;;;6.57;1.92;;;16.40;99.90;;;;;;4764075;29;20043;-82
2021/09/01 04:44:23;;;;;;;8.77;2.28;;;16.40;99.90;;;;;;4749671;29;20051;-83
2021/09/01 04:46:50;;;;;;;6.82;1.65;;;16.40;99.90;;;;;;4735645;29;20062;-84
2021/09/01 04:49:16;;;;;;;6.25;1.80;;;16.40;99.90;;;;;;4732587;29;20062;-84
2021/09/01 04:51:43;;;;;;;8.15;2.35;;;16.40;99.90;;;;;;4749816;29;20051;-84
2021/09/01 04:54:10;;;;;;;11.88;2.10;;;16.40;99.90;;;;;;4750030;29;20062;-84
2021/09/01 04:56:36;;;;;;;11.18;2.47;;;16.40;99.90;;;;;;4749113;29;20043;-84
2021/09/01 04:59:03;;;;;;;9.25;1.92;;;16.40;99.90;;;;;;4750518;30;20047;-85
2021/09/01 05:01:29;;;;;;;9.30;1.98;;;16.40;99.90;;;;;;4751946;29;20059;-86
2021/09/01 05:03:56;;;;;;;7.78;1.40;;;16.40;99.90;;;;;;4750356;29;20058;-85
2021/09/01 05:06:25;;;;;;;7.03;2.10;;;16.40;99.90;;;;;;4738084;29;20055;-87
2021/09/01 05:08:51;;;;;;;9.13;2.15;;;16.40;99.90;;;;;;4734525;30;20059;-88
2021/09/01 05:11:18;;;;;;;7.28;1.50;;;16.40;99.90;;;;;;4752935;29;20058;-86
2021/09/01 05:13:45;;;;;;;4.82;1.20;;;16.40;99.90;;;;;;4767400;29;20043;-86
2021/09/01 05:16:18;;;;;;;7.45;1.65;;;16.40;99.90;;;;;;4757140;29;20054;-86
2021/09/01 05:18:53;;;;;;;;;;;16.40;99.90;;;;;;4789515;29;20043;-87
2021/09/01 05:21:25;;;;;;;9.73;1.67;;;16.50;99.90;;;;;;4766794;29;19924;-85
2021/09/01 05:23:55;;;;;;;7.82;1.90;;;16.40;99.90;;;;;;4781184;29;20047;-83
2021/09/01 05:26:31;;;;;;;7.05;1.80;;;16.40;99.90;;;;;;4746974;29;20058;-84
2021/09/01 05:29:02;;;;;;;10.77;1.80;;;16.40;99.90;;;;;;4780073;29;20035;-83
2021/09/01 05:31:31;;;;;;;9.07;1.92;;;16.50;99.90;;;;;;4751287;29;20055;-83
2021/09/01 05:34:02;;;;;;;8.05;1.50;;;16.50;99.90;;;;;;4738226;30;20043;-84
2021/09/01 05:36:30;;;;;;;8.23;1.60;;;16.40;99.90;;;;;;4766994;29;20046;-83
2021/09/01 05:39:01;;;;;;;6.90;1.40;;;16.40;99.80;;;;;;4752382;29;20519;-83
2021/09/01 05:41:29;;;;;;;7.65;1.45;;;16.50;99.80;;;;;;4748759;29;20051;-83
2021/09/01 05:43:58;;;;;;;5.68;1.25;;;16.50;99.80;;;;;;4752068;29;20043;-84
2021/09/01 05:46:30;;;;;;;4.95;1.83;;;16.50;99.80;;;;;;4751046;29;20063;-84
2021/09/01 05:48:58;;;;;;;5.35;1.38;;;16.60;99.80;;;;;;4750054;29;20058;-84
2021/09/01 05:51:27;;;;;;;6.88;1.42;;;16.60;99.80;;;;;;4771670;29;20042;-82
2021/09/01 05:53:54;;;;;;;7.97;1.55;;;16.60;99.80;;;;;;4749378;29;20052;-84
2021/09/01 05:56:27;;;;;;;5.25;1.48;;;16.60;99.80;;;;;;4751726;29;20047;-85
2021/09/01 05:58:58;;;;;;;4.07;1.40;;;16.60;99.80;;;;;;4755454;29;20055;-84
2021/09/01 06:01:34;;;;;;;8.18;1.70;;;16.70;99.70;;;;;;4788044;29;20054;-84
2021/09/01 06:04:03;;;;;;;4.65;1.38;;;16.70;99.70;;;;;;4752621;29;20054;-84
2021/09/01 06:06:30;;;;;;;7.35;1.92;;;16.70;99.70;;;;;;4750562;29;20043;-85
2021/09/01 06:08:59;;;;;;;8.10;1.85;;;16.70;99.60;;;;;;4751067;29;20048;-84
2021/09/01 06:11:27;;;;;;;5.43;1.33;;;16.70;99.60;;;;;;4766116;29;20042;-84
2021/09/01 06:13:54;;;;;;;8.45;1.75;;;16.70;99.50;;;;;;4768259;29;20047;-84
2021/09/01 06:16:20;;;;;;;7.20;1.42;;;16.80;99.50;;;;;;4751275;29;20054;-83
2021/09/01 06:18:47;;;;;;;5.97;1.23;;;16.80;99.40;;;;;;4752786;29;20043;-83
2021/09/01 06:21:14;;;;;;;6.75;1.13;;;16.80;99.40;;;;;;4751000;29;20059;-82
2021/09/01 06:23:40;;;;;;;6.72;1.13;;;16.80;99.30;;;;;;4737317;30;20512;-83
2021/09/01 06:26:09;;;;;;;4.43;0.98;;;16.90;99.20;;;;;;4771354;29;20043;-83
2021/09/01 06:28:39;;;;;;;6.25;1.40;;;16.90;99.10;;;;;;4754354;29;20078;-83
2021/09/01 06:31:06;;;;;;;7.25;1.50;;;16.90;98.90;;;;;;4743486;30;20047;-84
2021/09/01 06:33:33;;;;;;;11.23;2.38;;;17.00;98.80;;;;;;4752965;30;20051;-84
2021/09/01 06:35:59;;;;;;;5.45;2.33;;;16.90;98.70;;;;;;4767899;30;20400;-84
2021/09/01 06:38:26;;;;;;;10.18;3.10;;;17.00;98.60;;;;;;4753989;30;20039;-83
2021/09/01 06:40:53;;;;;;;6.82;2.40;;;17.00;98.40;;;;;;4740464;29;20177;-81
2021/09/01 06:43:19;;;;;;;5.72;1.80;;;17.00;98.40;;;;;;4740569;29;20059;-79
2021/09/01 06:45:47;;;;;;;4.93;1.33;;;17.00;98.40;;;;;;4767999;29;20524;-80
2021/09/01 06:48:13;;;;;;;6.13;1.20;;;17.10;98.40;;;;;;4763956;29;20057;-80
2021/09/01 06:50:43;;;;;;;6.65;1.58;;;17.10;98.30;;;;;;4740495;30;20062;-87
2021/09/01 06:53:12;;;;;;;5.40;1.23;;;17.20;98.40;;;;;;4757302;30;20931;-81
2021/09/01 06:55:39;;;;;;;6.47;1.30;;;17.20;98.30;;;;;;4756235;30;20044;-85
2021/09/01 06:58:20;;;;;;;6.07;1.60;;;17.20;98.30;;;;;;4751128;29;20059;-80
2021/09/01 07:00:47;;;;;;;6.65;1.30;;;17.20;98.20;;;;;;4754645;29;20508;-81
2021/09/01 07:03:17;;;;;;;5.72;1.50;;;17.30;98.20;;;;;;4754326;29;20044;-81
2021/09/01 07:05:43;;;;;;;9.77;1.83;;;17.30;98.20;;;;;;4755515;29;20729;-88
2021/09/01 07:08:15;;;;;;;7.88;1.58;;;17.40;98.10;;;;;;4750639;29;20035;-87
2021/09/01 07:10:42;;;;;;;9.63;2.38;;;17.40;98.10;;;;;;4738166;29;20508;-88
2021/09/01 07:13:09;;;;;;;4.53;1.45;;;17.40;98.10;;;;;;4754295;30;20404;-89
2021/09/01 07:15:36;;;;;;;7.40;2.42;;;17.40;98.10;;;;;;4754227;29;20046;-87
2021/09/01 07:18:02;;;;;;;11.27;2.05;;;17.40;98.00;;;;;;4751912;29;20059;-88
2021/09/01 07:20:29;;;;;;;6.43;1.88;;;17.40;98.00;;;;;;4739550;30;20055;-87
2021/09/01 07:22:56;;;;;;;6.13;1.50;;;17.40;97.80;;;;;;4754169;29;20535;-89
2021/09/01 07:25:23;;;;;;;6.45;1.77;;;17.50;97.90;;;;;;4753574;29;20070;-88
2021/09/01 07:27:50;;;;;;;5.00;1.75;;;17.50;97.90;;;;;;4723811;29;20054;-90
2021/09/01 07:30:16;;;;;;;6.18;1.50;;;17.60;97.80;;;;;;4753128;29;20440;-89
2021/09/01 07:32:43;;;;;;;8.25;1.55;;;17.70;97.60;;;;;;4738602;30;20051;-89
2021/09/01 07:35:10;;;;;;;10.45;4.03;;;17.70;97.30;;;;;;4739970;29;20051;-90
2021/09/01 07:37:44;;;;;;;7.18;2.72;;;17.70;97.10;;;;;;4757551;29;20050;-89
2021/09/01 07:40:13;;;;;;;7.57;2.33;;;17.80;97.00;;;;;;4752119;29;20519;-89
2021/09/01 07:42:39;;;;;;;7.53;3.97;;;17.90;97.00;;;;;;4741704;29;20048;-89
2021/09/01 07:45:08;;;;;;;7.78;2.00;;;18.00;96.90;;;;;;4741942;29;20043;-88
2021/09/01 07:47:34;;;;;;;6.90;2.10;;;18.10;96.80;;;;;;4738372;29;20051;-88
2021/09/01 07:50:03;;;;;;;5.97;1.85;;;18.10;96.80;;;;;;4755015;29;20051;-87
2021/09/01 07:52:29;;;;;;;5.78;1.60;;;18.20;96.60;;;;;;4784164;29;20034;-87
2021/09/01 07:55:14;;;;;;;10.18;2.17;;;18.30;96.50;;;;;;4739333;29;20059;-89
2021/09/01 07:57:50;;;;;;;6.47;1.63;;;18.30;96.30;;;;;;4745702;29;20063;-88
2021/09/01 08:00:19;;;;;;;6.75;1.85;;;18.30;96.20;;;;;;4753701;30;20054;-89
2021/09/01 08:02:45;;;;;;;6.30;1.58;;;18.40;96.20;;;;;;4755144;30;20050;-80
2021/09/01 08:05:12;;;;;;;5.82;1.40;;;18.50;96.20;;;;;;4744674;29;20058;-79
2021/09/01 08:07:38;;;;;;;7.07;1.55;;;18.50;96.10;;;;;;4741350;29;20071;-89
2021/09/01 08:10:05;;;;;;;5.18;1.45;;;18.50;96.10;;;;;;4737812;30;20079;-88
2021/09/01 08:12:32;;;;;;;6.85;1.23;;;18.60;96.00;;;;;;4769143;29;20492;-80
2021/09/01 08:14:58;;;;;;;4.72;1.35;;;18.60;95.90;;;;;;4767743;29;20050;-80
2021/09/01 08:17:25;;;;;;;7.22;2.00;;;18.70;95.80;;;;;;4751204;30;20055;-80
2021/09/01 08:19:51;;;;;;;6.95;1.80;;;18.70;95.60;;;;;;4751922;29;20055;-89
2021/09/01 08:22:18;;;;;;;5.95;1.60;;;18.80;95.60;;;;;;4756213;29;20039;-80
2021/09/01 08:24:44;;;;;;;7.68;1.83;;;18.80;95.60;;;;;;4741307;29;20062;-79
2021/09/01 08:27:12;;;;;;;6.70;1.50;;;18.80;95.50;;;;;;4756055;29;20061;-80
2021/09/01 08:29:40;;;;;;;7.20;1.42;;;18.90;95.40;;;;;;4739643;29;20064;-89
2021/09/01 08:32:07;;;;;;;6.40;1.30;;;19.00;95.40;;;;;;4743506;29;20051;-89
2021/09/01 08:34:33;;;;;;;5.10;1.42;;;19.00;95.20;;;;;;4772438;29;20527;-88
2021/09/01 08:37:02;;;;;;;5.47;1.65;;;19.00;95.20;;;;;;4754243;29;20058;-80
2021/09/01 08:39:29;;;;;;;8.23;1.67;;;19.00;95.10;;;;;;4753227;29;20054;-80
2021/09/01 08:41:56;;;;;;;4.78;1.38;;;19.00;95.00;;;;;;4739254;30;20063;-80
2021/09/01 08:44:23;;;;;;;7.13;1.80;;;19.00;95.10;;;;;;4736140;30;20051;-80
2021/09/01 08:46:50;;;;;;;7.35;1.90;;;19.00;95.00;;;;;;4724028;30;20051;-79
2021/09/01 08:49:19;;;;;;;6.40;1.67;;;19.10;95.00;;;;;;4735934;30;20055;-79
2021/09/01 08:51:47;;;;;;;10.48;2.47;;;19.10;94.90;;;;;;4720060;30;20072;-86
2021/09/01 08:54:14;;;;;;;6.55;1.65;;;19.20;94.70;;;;;;4752152;30;20050;-79
2021/09/01 08:56:41;;;;;;;9.85;1.60;;;19.20;94.60;;;;;;4749977;30;20038;-81
2021/09/01 08:59:08;;;;;;;5.95;1.40;;;19.40;94.50;;;;;;4718012;30;20052;-80
2021/09/01 09:01:46;;;;;;;5.18;1.67;;;19.40;94.20;;;;;;4737669;30;20075;-89
2021/09/01 09:04:19;;;;;;;9.15;1.73;;;19.40;94.10;;;;;;4739452;30;20047;-88
2021/09/01 09:06:46;;;;;;;;;;;19.50;94.00;;;;;;4735747;30;20047;-80
2021/09/01 09:09:15;;;;;;;6.10;1.50;;;19.60;93.90;;;;;;4733538;30;19934;-80
2021/09/01 09:11:45;;;;;;;9.93;2.03;;;19.70;93.80;;;;;;4736630;30;20079;-91
2021/09/01 09:14:31;;;;;;;6.90;1.45;;;19.80;93.60;;;;;;4736809;30;20415;-89
2021/09/01 09:17:16;;;;;;;9.15;1.77;;;20.00;93.60;;;;;;4747543;30;20411;-88
2021/09/01 09:20:05;;;;;;;6.88;1.60;;;20.10;93.50;;;;;;4730978;30;20058;-81
2021/09/01 09:22:37;;;;;;;6.43;1.65;;;20.20;93.40;;;;;;4748451;30;20047;-90
2021/09/01 09:25:30;;;;;;;5.63;1.70;;;20.30;93.00;;;;;;4754256;30;20055;-89
2021/09/01 09:27:59;;;;;;;7.05;1.60;;;20.40;93.00;;;;;;4730648;30;20040;-80
2021/09/01 09:30:28;;;;;;;8.32;1.60;;;20.50;92.80;;;;;;4749230;30;20063;-89
2021/09/01 09:32:57;;;;;;;6.20;1.27;;;20.50;92.70;;;;;;4737335;30;20551;-82
2021/09/01 09:35:45;;;;;;;6.43;1.75;;;20.70;92.80;;;;;;4749776;30;20050;-91
2021/09/01 09:38:13;;;;;;;7.15;2.00;;;20.70;92.40;;;;;;4731737;30;20099;-81
2021/09/01 09:40:39;;;;;;;9.13;1.98;;;20.80;92.20;;;;;;4741182;30;20378;-90
2021/09/01 09:43:19;;;;;;;9.73;2.30;;;20.80;92.00;;;;;;4749763;30;20504;-90
2021/09/01 09:45:47;;;;;;;4.63;1.50;;;20.90;92.00;;;;;;4751762;29;20412;-90
2021/09/01 09:48:14;;;;;;;9.00;1.80;;;21.00;92.00;;;;;;4749351;29;20052;-81
2021/09/01 09:50:47;;;;;;;8.52;1.98;;;21.00;91.70;;;;;;4767808;29;20050;-82
2021/09/01 09:53:35;;;;;;;7.07;1.80;;;21.00;91.70;;;;;;4772825;30;20530;-87
2021/09/01 09:56:06;;;;;;;6.22;1.40;;;21.00;91.80;;;;;;4756134;29;20050;-88
2021/09/01 09:58:45;;;;;;;8.57;1.98;;;21.00;91.40;;;;;;4756930;29;20055;-80
2021/09/01 10:01:14;;;;;;;6.45;1.73;;;20.90;91.60;;;;;;4769031;30;20047;-90
2021/09/01 10:03:41;;;;;;;4.10;1.25;;;21.10;91.60;;;;;;4777512;29;20055;-80
2021/09/01 10:06:13;;;;;;;6.03;1.52;;;21.20;91.50;;;;;;4743138;29;20047;-82
2021/09/01 10:08:40;;;;;;;6.00;1.40;;;21.20;91.20;;;;;;4758950;29;20055;-90
2021/09/01 10:11:10;;;;;;;9.77;1.77;;;21.40;91.20;;;;;;4759189;29;20043;-81
2021/09/01 10:13:39;;;;;;;7.57;1.63;;;21.40;90.90;;;;;;4759268;29;20050;-81
2021/09/01 10:16:19;;;;;;;4.30;1.15;;;21.50;90.60;;;;;;4771181;29;20065;-87
2021/09/01 10:19:14;;;;;;;6.03;1.40;;;21.50;90.60;;;;;;4760412;29;20059;-87
2021/09/01 10:21:54;;;;;;;9.23;1.75;;;21.50;90.60;;;;;;4751843;29;20063;-86
2021/09/01 10:24:30;;;;;;;7.03;1.48;;;21.50;90.40;;;;;;4757627;29;20050;-83
2021/09/01 10:27:05;;;;;;;5.85;1.00;;;21.30;90.50;;;;;;4744104;29;20038;-83
2021/09/01 10:29:45;;;;;;;5.50;1.40;;;21.20;90.60;;;;;;4753107;29;20054;-88
2021/09/01 10:32:31;;;;;;;6.63;1.63;;;21.10;90.70;;;;;;4754443;30;20048;-82
2021/09/01 10:35:15;;;;;;;7.28;1.58;;;21.10;90.70;;;;;;4751599;29;20057;-88
2021/09/01 10:37:56;;;;;;;7.85;2.10;;;21.10;90.60;;;;;;4742563;29;20039;-87
2021/09/01 10:40:23;;;;;;;7.80;2.95;;;20.90;90.90;;;;;;4768975;29;20047;-81
2021/09/01 10:42:56;;;;;;;6.25;2.55;;;20.90;91.00;;;;;;4787121;29;20480;-88
2021/09/01 10:45:44;;;;;;;5.15;1.98;;;20.90;91.30;;;;;;4741777;29;20062;-88
2021/09/01 10:48:13;;;;;;;5.32;1.65;;;20.90;91.00;;;;;;4753779;29;20058;-87
2021/09/01 10:50:44;;;;;;;5.57;1.65;;;20.80;91.10;;;;;;4742492;29;20067;-81
2021/09/01 10:53:25;;;;;;;5.28;1.40;;;20.80;91.20;;;;;;4769557;29;20097;-87
2021/09/01 10:55:55;;;;;;;5.43;1.48;;;20.80;91.50;;;;;;4745439;29;20499;-88
2021/09/01 10:58:30;;;;;;;6.93;1.33;;;20.90;91.20;;;;;;4770761;29;20818;-88
2021/09/01 11:01:06;;;;;;;7.38;1.40;;;20.90;91.10;;;;;;4768987;29;20113;-89
2021/09/01 11:03:36;;;;;;;4.90;1.42;;;20.90;91.20;;;;;;4758399;29;20054;-81
2021/09/01 11:06:12;;;;;;;9.25;1.58;;;21.00;91.10;;;;;;4763112;29;20038;-88
2021/09/01 11:08:54;;;;;;;7.93;2.17;;;21.10;91.10;;;;;;4748842;29;20419;-82
2021/09/01 11:11:21;;;;;;;6.10;2.05;;;21.20;90.80;;;;;;4767457;29;20515;-82
2021/09/01 11:13:49;;;;;;;5.78;1.58;;;21.20;90.70;;;;;;4779044;29;20138;-87
2021/09/01 11:16:20;;;;;;;5.90;1.25;;;21.40;90.50;;;;;;4738551;29;20389;-88
2021/09/01 11:19:11;;;;;;;6.97;1.23;;;21.50;90.20;;;;;;4736090;30;20491;-81
2021/09/01 11:21:46;;;;;;;7.80;1.70;;;21.70;89.70;;;;;;4766455;30;20464;-88
2021/09/01 11:24:17;;;;;;;8.13;1.40;;;21.90;89.30;;;;;;4751103;29;20043;-82
2021/09/01 11:26:45;;;;;;;5.40;1.50;;;22.10;89.30;;;;;;4774439;29;20035;-87
2021/09/01 11:29:12;;;;;;;6.88;1.40;;;22.20;88.70;;;;;;4765762;30;20035;-88
2021/09/01 11:31:44;;;;;;;6.13;1.52;;;22.40;88.60;;;;;;4769857;29;20055;-87
2021/09/01 11:34:14;;;;;;;5.90;1.55;;;22.50;88.70;;;;;;4768486;29;20492;-89
2021/09/01 11:36:42;;;;;;;6.45;1.35;;;22.60;88.70;;;;;;4761984;29;20047;-82
2021/09/01 11:39:10;;;;;;;6.40;1.65;;;22.60;88.40;;;;;;4765765;29;20058;-85
2021/09/01 11:41:38;;;;;;;5.40;1.42;;;22.50;87.90;;;;;;4757639;29;20067;-85
2021/09/01 11:44:07;;;;;;;5.40;1.50;;;22.40;87.80;;;;;;4776512;29;20059;-85
2021/09/01 11:46:36;;;;;;;7.20;1.90;;;22.30;88.20;;;;;;4773426;29;20062;-86
2021/09/01 11:49:11;;;;;;;9.25;1.85;;;22.10;88.40;;;;;;4757717;29;20063;-79
2021/09/01 11:51:39;;;;;;;3.53;0.90;;;21.90;88.60;;;;;;4756851;29;20051;-78
2021/09/01 11:54:07;;;;;;;5.65;1.15;;;21.80;89.10;;;;;;4743450;29;20047;-84
2021/09/01 11:56:35;;;;;;;5.32;1.30;;;21.60;89.20;;;;;;4738774;30;20070;-85
2021/09/01 11:59:06;;;;;;;6.70;1.52;;;21.40;89.80;;;;;;4755389;29;20053;-79
2021/09/01 12:01:36;;;;;;;6.07;1.67;;;21.20;90.20;;;;;;4770497;29;20047;-81
2021/09/01 12:04:03;;;;;;;6.82;1.75;;;21.10;90.50;;;;;;4768906;29;20054;-86
2021/09/01 12:06:41;;;;;;;6.95;1.58;;;21.10;90.60;;;;;;4739191;29;20051;-87
2021/09/01 12:09:13;;;;;;;6.70;1.50;;;21.10;90.70;;;;;;4768198;29;20057;-86
2021/09/01 12:11:58;;;;;;;4.82;1.80;;;21.10;90.90;;;;;;4768833;29;20039;-81
2021/09/01 12:14:30;;;;;;;6.88;1.65;;;21.20;90.80;;;;;;4750530;29;20055;-81
2021/09/01 12:17:18;;;;;;;4.95;1.27;;;21.20;90.70;;;;;;4761275;29;20125;-81
2021/09/01 12:19:55;;;;;;;5.18;1.42;;;21.20;90.50;;;;;;4747856;29;20051;-81
2021/09/01 12:22:30;;;;;;;7.00;1.60;;;21.10;90.40;;;;;;4754272;29;20047;-81
2021/09/01 12:25:19;;;;;;;5.70;1.25;;;21.20;90.60;;;;;;4753159;30;20052;-86
2021/09/01 12:28:07;;;;;;;10.43;5.68;;;21.20;90.50;;;;;;4749676;29;20048;-88
2021/09/01 12:30:49;;;;;;;8.93;3.80;;;21.20;90.30;;;;;;4768780;29;20055;-87
2021/09/01 12:33:18;;;;;;;8.80;2.28;;;21.20;90.20;;;;;;4751151;29;20507;-86
2021/09/01 12:35:57;;;;;;;9.32;2.50;;;21.20;90.30;;;;;;4751796;29;20047;-87
2021/09/01 12:38:25;;;;;;;5.95;1.92;;;21.20;90.60;;;;;;4749549;29;20765;-88
2021/09/01 12:40:52;;;;;;;5.35;1.80;;;21.20;90.70;;;;;;4766426;30;20062;-87
2021/09/01 12:43:19;;;;;;;8.52;2.10;;;21.40;90.90;;;;;;4737581;30;20047;-87
2021/09/01 12:45:46;;;;;;;7.22;2.28;;;21.50;90.30;;;;;;4738058;30;20051;-88
2021/09/01 12:48:16;;;;;;;7.22;1.75;;;21.60;90.20;;;;;;4736905;30;20499;-87
2021/09/01 12:50:47;;;;;;;6.43;1.50;;;21.80;90.30;;;;;;4752070;30;20047;-87
2021/09/01 12:53:21;;;;;;;5.95;1.70;;;22.00;89.60;;;;;;4754384;30;20908;-86
2021/09/01 12:55:50;;;;;;;9.27;4.53;;;22.20;88.60;;;;;;4752130;30;20590;-87
2021/09/01 12:58:17;;;;;;;11.02;5.13;;;22.50;87.90;;;;;;4766849;30;20042;-87